createdAt,value
2022-09-27T00:00:07.725Z,22.80
2022-09-27T00:02:34.515Z,22.90
2022-09-27T00:05:01.255Z,23.10
2022-09-27T00:07:27.927Z,23.20
2022-09-27T00:09:54.600Z,23.30
2022-09-27T00:12:21.240Z,23.40
2022-09-27T00:14:47.906Z,23.30
2022-09-27T00:17:14.586Z,23.30
2022-09-27T00:19:41.262Z,23.20
2022-09-27T00:22:07.935Z,23.20
2022-09-27T00:24:36.120Z,23.20
2022-09-27T00:27:02.773Z,23.10
2022-09-27T00:29:29.600Z,23.00
2022-09-27T00:31:56.951Z,23.00
2022-09-27T00:34:24.630Z,23.00
2022-09-27T00:36:51.481Z,22.90
2022-09-27T00:39:18.256Z,22.90
2022-09-27T00:41:45.388Z,22.80
2022-09-27T00:44:28.540Z,22.80
2022-09-27T00:47:00.398Z,22.80
2022-09-27T00:49:28.711Z,22.80
2022-09-27T00:51:56.093Z,22.70
2022-09-27T00:54:22.791Z,22.70
2022-09-27T00:56:49.474Z,22.70
2022-09-27T00:59:17.704Z,22.70
2022-09-27T01:01:44.525Z,22.70
2022-09-27T01:04:12.118Z,22.70
2022-09-27T01:06:38.895Z,22.70
2022-09-27T01:09:06.171Z,22.60
2022-09-27T01:11:32.910Z,22.60
2022-09-27T01:14:05.745Z,22.60
2022-09-27T01:16:41.338Z,22.60
2022-09-27T01:19:27.009Z,22.60
2022-09-27T01:21:53.661Z,22.60
2022-09-27T01:24:39.107Z,22.60
2022-09-27T01:27:08.771Z,22.60
2022-09-27T01:29:36.039Z,22.60
2022-09-27T01:32:26.432Z,22.50
2022-09-27T01:34:53.309Z,22.50
2022-09-27T01:37:26.186Z,22.50
2022-09-27T01:39:56.391Z,22.50
2022-09-27T01:42:36.386Z,22.60
2022-09-27T01:45:06.209Z,22.70
2022-09-27T01:47:52.348Z,22.90
2022-09-27T01:50:20.512Z,23.10
2022-09-27T01:53:07.587Z,23.20
2022-09-27T01:55:35.373Z,23.40
2022-09-27T01:58:07.008Z,23.40
2022-09-27T02:00:37.053Z,23.40
2022-09-27T02:03:21.334Z,23.30
2022-09-27T02:05:50.386Z,23.30
2022-09-27T02:08:22.588Z,23.20
2022-09-27T02:10:49.345Z,23.20
2022-09-27T02:13:17.672Z,23.10
2022-09-27T02:15:47.486Z,23.10
2022-09-27T02:18:15.722Z,23.00
2022-09-27T02:20:45.118Z,22.90
2022-09-27T02:23:15.483Z,22.90
2022-09-27T02:25:43.914Z,22.90
2022-09-27T02:28:10.935Z,22.90
2022-09-27T02:30:37.694Z,22.80
2022-09-27T02:33:04.405Z,22.80
2022-09-27T02:35:34.533Z,22.80
2022-09-27T02:38:01.258Z,22.80
2022-09-27T02:40:31.590Z,22.70
2022-09-27T02:42:58.435Z,22.70
2022-09-27T02:45:25.133Z,22.70
2022-09-27T02:47:59.810Z,22.70
2022-09-27T02:50:39.981Z,22.70
2022-09-27T02:53:26.895Z,22.70
2022-09-27T02:56:11.850Z,22.60
2022-09-27T02:58:45.533Z,22.60
2022-09-27T03:01:13.263Z,22.60
2022-09-27T03:03:45.713Z,22.60
2022-09-27T03:06:13.422Z,22.60
2022-09-27T03:08:40.092Z,22.50
2022-09-27T03:11:06.837Z,22.50
2022-09-27T03:13:49.845Z,22.50
2022-09-27T03:16:21.488Z,22.50
2022-09-27T03:18:48.171Z,22.50
2022-09-27T03:21:14.876Z,22.50
2022-09-27T03:23:41.519Z,22.50
2022-09-27T03:26:12.277Z,22.50
2022-09-27T03:28:39.739Z,22.50
2022-09-27T03:31:06.473Z,22.50
2022-09-27T03:33:33.659Z,22.50
2022-09-27T03:36:00.443Z,22.50
2022-09-27T03:38:27.154Z,22.50
2022-09-27T03:40:54.072Z,22.40
2022-09-27T03:43:20.760Z,22.40
2022-09-27T03:45:47.891Z,22.50
2022-09-27T03:48:14.645Z,22.40
2022-09-27T03:50:41.380Z,22.40
2022-09-27T03:53:08.057Z,22.40
2022-09-27T03:55:35.482Z,22.40
2022-09-27T03:58:02.178Z,22.40
2022-09-27T04:00:28.842Z,22.50
2022-09-27T04:02:55.594Z,22.60
2022-09-27T04:05:22.360Z,22.70
2022-09-27T04:07:49.600Z,22.80
2022-09-27T04:10:16.316Z,23.00
2022-09-27T04:12:43.476Z,23.20
2022-09-27T04:15:10.469Z,23.30
2022-09-27T04:17:37.128Z,23.30
2022-09-27T04:20:04.236Z,23.30
2022-09-27T04:22:30.975Z,23.30
2022-09-27T04:24:57.648Z,23.20
2022-09-27T04:27:24.340Z,23.20
2022-09-27T04:29:50.976Z,23.10
2022-09-27T04:32:17.706Z,23.10
2022-09-27T04:35:03.220Z,23.00
2022-09-27T04:37:29.966Z,23.00
2022-09-27T04:39:57.197Z,23.00
2022-09-27T04:42:23.863Z,22.90
2022-09-27T04:44:51.396Z,22.90
2022-09-27T04:47:19.154Z,22.80
2022-09-27T04:49:45.853Z,22.80
2022-09-27T04:52:15.507Z,22.80
2022-09-27T04:54:42.467Z,22.70
2022-09-27T04:57:09.518Z,22.80
2022-09-27T04:59:36.200Z,22.70
2022-09-27T05:02:03.170Z,22.70
2022-09-27T05:04:30.011Z,22.70
2022-09-27T05:06:57.415Z,22.70
2022-09-27T05:09:24.182Z,22.60
2022-09-27T05:11:50.929Z,22.60
2022-09-27T05:14:17.687Z,22.60
2022-09-27T05:16:44.809Z,22.60
2022-09-27T05:19:11.582Z,22.60
2022-09-27T05:21:38.286Z,22.60
2022-09-27T05:24:05.960Z,22.60
2022-09-27T05:26:32.705Z,22.60
2022-09-27T05:28:59.432Z,22.50
2022-09-27T05:31:26.717Z,22.60
2022-09-27T05:33:54.018Z,22.50
2022-09-27T05:36:20.762Z,22.50
2022-09-27T05:38:47.661Z,22.50
2022-09-27T05:41:14.474Z,22.50
2022-09-27T05:43:41.607Z,22.50
2022-09-27T05:46:08.321Z,22.50
2022-09-27T05:48:35.074Z,22.50
2022-09-27T05:51:01.721Z,22.50
2022-09-27T05:53:32.490Z,22.50
2022-09-27T05:56:03.483Z,22.50
2022-09-27T05:58:30.323Z,22.40
2022-09-27T06:00:57.033Z,22.50
2022-09-27T06:03:23.682Z,22.40
2022-09-27T06:05:51.439Z,22.40
2022-09-27T06:08:20.318Z,22.40
2022-09-27T06:10:47.510Z,22.40
2022-09-27T06:13:15.299Z,22.40
2022-09-27T06:15:42.939Z,22.50
2022-09-27T06:18:10.377Z,22.60
2022-09-27T06:20:37.402Z,22.70
2022-09-27T06:23:11.373Z,22.90
2022-09-27T06:25:38.180Z,23.00
2022-09-27T06:28:05.048Z,23.20
2022-09-27T06:30:31.893Z,23.30
2022-09-27T06:32:58.964Z,23.30
2022-09-27T06:35:28.976Z,23.30
2022-09-27T06:37:55.839Z,23.20
2022-09-27T06:40:22.869Z,23.20
2022-09-27T06:42:50.413Z,23.10
2022-09-27T06:45:17.178Z,23.10
2022-09-27T06:47:43.862Z,23.00
2022-09-27T06:50:10.549Z,23.00
2022-09-27T06:52:37.252Z,22.90
2022-09-27T06:55:04.438Z,22.90
2022-09-27T06:57:49.788Z,22.90
2022-09-27T07:00:26.965Z,22.90
2022-09-27T07:02:54.006Z,22.80
2022-09-27T07:05:20.891Z,22.80
2022-09-27T07:07:51.349Z,22.80
2022-09-27T07:10:18.285Z,22.70
2022-09-27T07:12:48.821Z,22.70
2022-09-27T07:15:15.625Z,22.70
2022-09-27T07:17:42.711Z,22.70
2022-09-27T07:20:09.441Z,22.70
2022-09-27T07:22:39.944Z,22.70
2022-09-27T07:25:06.697Z,22.60
2022-09-27T07:27:38.197Z,22.60
2022-09-27T07:30:07.300Z,22.60
2022-09-27T07:32:35.686Z,22.60
2022-09-27T07:35:05.955Z,22.60
2022-09-27T07:37:33.046Z,22.60
2022-09-27T07:40:00.280Z,22.60
2022-09-27T07:42:28.810Z,22.60
2022-09-27T07:44:56.056Z,22.50
2022-09-27T07:47:24.748Z,22.50
2022-09-27T07:49:54.575Z,22.50
2022-09-27T07:52:21.387Z,22.50
2022-09-27T07:54:48.071Z,22.50
2022-09-27T07:57:15.028Z,22.50
2022-09-27T07:59:41.867Z,22.50
2022-09-27T08:02:15.377Z,22.50
2022-09-27T08:04:43.681Z,22.50
2022-09-27T08:07:14.224Z,22.50
2022-09-27T08:09:41.342Z,22.50
2022-09-27T08:12:08.441Z,22.50
2022-09-27T08:14:40.939Z,22.50
2022-09-27T08:17:13.170Z,22.50
2022-09-27T08:19:40.709Z,22.50
2022-09-27T08:22:07.798Z,22.50
2022-09-27T08:24:34.486Z,22.50
2022-09-27T08:27:02.131Z,22.50
2022-09-27T08:29:28.793Z,22.60
2022-09-27T08:31:55.778Z,22.70
2022-09-27T08:34:22.969Z,22.80
2022-09-27T08:36:49.705Z,23.00
2022-09-27T08:39:16.617Z,23.10
2022-09-27T08:41:43.647Z,23.30
2022-09-27T08:44:13.790Z,23.30
2022-09-27T08:47:00.033Z,23.30
2022-09-27T08:49:36.372Z,23.30
2022-09-27T08:52:03.656Z,23.30
2022-09-27T08:54:30.686Z,23.20
2022-09-27T08:57:04.293Z,23.20
2022-09-27T08:59:34.147Z,23.10
2022-09-27T09:02:00.823Z,23.10
2022-09-27T09:04:35.451Z,23.10
2022-09-27T09:07:02.156Z,23.00
2022-09-27T09:09:28.842Z,22.90
2022-09-27T09:12:33.192Z,22.90
2022-09-27T09:15:18.370Z,22.90
2022-09-27T09:17:45.088Z,22.90
2022-09-27T09:20:31.396Z,22.80
2022-09-27T09:22:58.310Z,22.80
2022-09-27T09:25:43.848Z,22.80
2022-09-27T09:28:10.517Z,22.70
2022-09-27T09:30:40.251Z,22.70
2022-09-27T09:33:20.022Z,22.70
2022-09-27T09:35:59.545Z,22.70
2022-09-27T09:38:29.223Z,22.70
2022-09-27T09:40:58.183Z,22.60
2022-09-27T09:43:26.520Z,22.60
2022-09-27T09:45:58.806Z,22.60
2022-09-27T09:48:30.300Z,22.60
2022-09-27T09:50:57.966Z,22.60
2022-09-27T09:53:40.037Z,22.60
2022-09-27T09:56:08.105Z,22.60
2022-09-27T09:58:44.994Z,22.60
2022-09-27T10:01:17.899Z,22.60
2022-09-27T10:03:44.766Z,22.50
2022-09-27T10:06:11.649Z,22.50
2022-09-27T10:08:38.375Z,22.50
2022-09-27T10:11:05.069Z,22.50
2022-09-27T10:13:32.338Z,22.50
2022-09-27T10:16:12.704Z,22.50
2022-09-27T10:18:45.084Z,22.50
2022-09-27T10:21:22.108Z,22.50
2022-09-27T10:24:01.570Z,22.60
2022-09-27T10:26:28.370Z,22.70
2022-09-27T10:28:55.055Z,22.90
2022-09-27T10:31:21.840Z,23.00
2022-09-27T10:33:51.674Z,23.20
2022-09-27T10:36:23.054Z,23.30
2022-09-27T10:38:51.887Z,23.40
2022-09-27T10:41:31.805Z,23.40
2022-09-27T10:43:58.577Z,23.30
2022-09-27T10:46:28.950Z,23.30
2022-09-27T10:49:08.369Z,23.20
2022-09-27T10:51:35.133Z,23.20
2022-09-27T10:54:01.883Z,23.10
2022-09-27T10:56:29.310Z,23.10
2022-09-27T10:58:56.220Z,23.00
2022-09-27T11:01:22.961Z,23.00
2022-09-27T11:03:50.959Z,23.00
2022-09-27T11:06:23.784Z,22.90
2022-09-27T11:08:51.282Z,22.90
2022-09-27T11:11:20.048Z,22.80
2022-09-27T11:14:04.534Z,22.80
2022-09-27T11:16:32.890Z,22.80
2022-09-27T11:19:18.405Z,22.70
2022-09-27T11:21:48.237Z,22.70
2022-09-27T11:24:21.052Z,22.70
2022-09-27T11:26:48.901Z,22.70
2022-09-27T11:29:35.374Z,22.70
2022-09-27T11:32:21.059Z,22.70
2022-09-27T11:34:58.230Z,22.80
2022-09-27T11:37:24.933Z,22.70
2022-09-27T11:40:15.203Z,22.60
2022-09-27T11:43:00.731Z,22.60
2022-09-27T11:45:56.311Z,22.60
2022-09-27T11:48:27.365Z,22.70
2022-09-27T11:51:03.296Z,22.80
2022-09-27T11:53:39.294Z,22.90
2022-09-27T11:56:13.901Z,23.10
2022-09-27T11:59:00.511Z,23.20
2022-09-27T12:01:27.245Z,23.30
2022-09-27T12:04:17.163Z,23.40
2022-09-27T12:07:02.896Z,23.30
2022-09-27T12:09:34.576Z,23.30
2022-09-27T12:12:03.889Z,23.30
2022-09-27T12:14:36.353Z,23.20
2022-09-27T12:17:03.920Z,23.10
2022-09-27T12:19:32.495Z,23.10
2022-09-27T12:22:01.104Z,23.10
2022-09-27T12:24:27.779Z,23.00
2022-09-27T12:26:55.245Z,23.00
2022-09-27T12:29:31.646Z,22.90
2022-09-27T12:32:04.634Z,22.90
2022-09-27T12:34:38.963Z,22.90
2022-09-27T12:37:11.299Z,22.90
2022-09-27T12:39:42.840Z,22.80
2022-09-27T12:42:17.888Z,22.80
2022-09-27T12:44:47.559Z,22.80
2022-09-27T12:47:24.244Z,22.80
2022-09-27T12:50:01.651Z,22.80
2022-09-27T12:52:30.965Z,22.70
2022-09-27T12:55:06.855Z,22.70
2022-09-27T12:57:59.842Z,22.70
2022-09-27T13:00:26.706Z,22.70
2022-09-27T13:03:16.174Z,22.70
2022-09-27T13:06:02.324Z,22.60
2022-09-27T13:08:49.697Z,22.70
2022-09-27T13:11:25.574Z,22.60
2022-09-27T13:13:55.551Z,22.70
2022-09-27T13:16:22.305Z,22.80
2022-09-27T13:18:50.215Z,22.90
2022-09-27T13:21:35.855Z,23.10
2022-09-27T13:24:03.666Z,23.20
2022-09-27T13:26:33.453Z,23.30
2022-09-27T13:29:02.173Z,23.40
2022-09-27T13:31:47.683Z,23.30
2022-09-27T13:34:34.742Z,23.30
2022-09-27T13:37:21.530Z,23.30
2022-09-27T13:39:48.240Z,23.20
2022-09-27T13:42:32.276Z,23.20
2022-09-27T13:45:14.440Z,23.10
2022-09-27T13:47:45.017Z,23.10
2022-09-27T13:50:29.303Z,23.00
2022-09-27T13:53:07.070Z,23.00
2022-09-27T13:55:52.152Z,23.00
2022-09-27T13:58:18.817Z,22.90
2022-09-27T14:00:49.399Z,22.90
2022-09-27T14:03:17.359Z,22.80
2022-09-27T14:06:05.426Z,22.90
2022-09-27T14:08:35.754Z,22.80
2022-09-27T14:11:03.020Z,22.80
2022-09-27T14:13:31.626Z,22.80
2022-09-27T14:15:59.489Z,22.70
2022-09-27T14:18:26.248Z,22.70
2022-09-27T14:20:52.964Z,22.70
2022-09-27T14:23:23.270Z,22.70
2022-09-27T14:25:50.677Z,22.70
2022-09-27T14:28:24.374Z,22.60
2022-09-27T14:31:06.435Z,22.70
2022-09-27T14:33:34.407Z,22.70
2022-09-27T14:36:23.728Z,22.70
2022-09-27T14:38:51.970Z,22.70
2022-09-27T14:41:18.716Z,22.90
2022-09-27T14:43:46.124Z,23.10
2022-09-27T14:46:33.226Z,23.20
2022-09-27T14:49:08.694Z,23.30
2022-09-27T14:51:35.741Z,23.40
2022-09-27T14:54:05.586Z,23.40
2022-09-27T14:56:33.969Z,23.40
2022-09-27T14:59:27.112Z,23.40
2022-09-27T15:01:53.764Z,23.30
2022-09-27T15:04:20.751Z,23.20
2022-09-27T15:06:49.562Z,23.20
2022-09-27T15:09:16.553Z,23.20
2022-09-27T15:11:44.526Z,23.10
2022-09-27T15:14:12.245Z,23.10
2022-09-27T15:16:38.977Z,23.10
2022-09-27T15:19:35.112Z,23.00
2022-09-27T15:22:20.778Z,22.90
2022-09-27T15:24:47.460Z,22.90
2022-09-27T15:27:14.735Z,22.90
2022-09-27T15:29:41.444Z,22.90
2022-09-27T15:32:08.152Z,22.80
2022-09-27T15:34:34.841Z,22.80
2022-09-27T15:37:03.613Z,22.80
2022-09-27T15:39:34.073Z,22.80
2022-09-27T15:42:14.744Z,22.70
2022-09-27T15:44:45.273Z,22.80
2022-09-27T15:47:32.027Z,22.70
2022-09-27T15:49:59.116Z,22.80
2022-09-27T15:52:58.180Z,22.70
2022-09-27T15:55:25.772Z,22.70
2022-09-27T15:58:05.765Z,22.70
2022-09-27T16:00:32.659Z,22.70
2022-09-27T16:02:59.425Z,22.70
2022-09-27T16:05:27.308Z,22.80
2022-09-27T16:07:54.068Z,22.90
2022-09-27T16:10:21.752Z,23.10
2022-09-27T16:12:48.502Z,23.20
2022-09-27T16:15:15.286Z,23.30
2022-09-27T16:17:44.843Z,23.40
2022-09-27T16:20:21.795Z,23.40
2022-09-27T16:22:48.825Z,23.40
2022-09-27T16:25:15.577Z,23.40
2022-09-27T16:27:42.242Z,23.30
2022-09-27T16:30:09.258Z,23.30
2022-09-27T16:32:40.197Z,23.20
2022-09-27T16:35:06.955Z,23.20
2022-09-27T16:37:34.129Z,23.10
2022-09-27T16:40:01.401Z,23.10
2022-09-27T16:42:28.098Z,23.10
2022-09-27T16:44:55.057Z,23.00
2022-09-27T16:47:21.815Z,23.00
2022-09-27T16:50:07.363Z,23.00
2022-09-27T16:52:34.169Z,22.90
2022-09-27T16:55:00.965Z,22.90
2022-09-27T16:57:30.602Z,22.90
2022-09-27T16:59:57.419Z,22.90
2022-09-27T17:02:24.595Z,22.90
2022-09-27T17:04:51.581Z,22.80
2022-09-27T17:07:18.407Z,22.80
2022-09-27T17:09:45.282Z,22.80
2022-09-27T17:12:12.241Z,22.80
2022-09-27T17:14:38.932Z,22.70
2022-09-27T17:17:06.318Z,22.70
2022-09-27T17:19:33.802Z,22.70
2022-09-27T17:22:00.588Z,22.70
2022-09-27T17:24:27.348Z,22.70
2022-09-27T17:26:55.392Z,22.70
2022-09-27T17:29:22.066Z,22.70
2022-09-27T17:31:48.893Z,22.60
2022-09-27T17:34:15.761Z,22.90
2022-09-27T17:36:44.303Z,23.00
2022-09-27T17:39:11.630Z,23.20
2022-09-27T17:41:40.089Z,23.30
2022-09-27T17:44:07.355Z,23.40
2022-09-27T17:46:35.187Z,23.40
2022-09-27T17:49:20.832Z,23.40
2022-09-27T17:51:48.245Z,23.40
2022-09-27T17:54:15.100Z,23.30
2022-09-27T17:56:42.214Z,23.20
2022-09-27T17:59:09.576Z,23.20
2022-09-27T18:01:39.399Z,23.20
2022-09-27T18:04:06.937Z,23.10
2022-09-27T18:06:33.616Z,23.10
2022-09-27T18:09:02.203Z,23.00
2022-09-27T18:11:28.906Z,23.00
2022-09-27T18:13:56.046Z,23.00
2022-09-27T18:16:29.609Z,22.90
2022-09-27T18:18:56.409Z,22.90
2022-09-27T18:21:23.791Z,22.90
2022-09-27T18:23:53.475Z,22.90
2022-09-27T18:26:24.124Z,22.80
2022-09-27T18:28:54.773Z,22.80
2022-09-27T18:31:22.341Z,22.80
2022-09-27T18:33:49.450Z,22.80
2022-09-27T18:36:20.148Z,22.70
2022-09-27T18:38:47.489Z,22.70
2022-09-27T18:41:17.927Z,22.70
2022-09-27T18:43:44.980Z,22.70
2022-09-27T18:46:34.477Z,22.70
2022-09-27T18:48:59.280Z,22.60
2022-09-27T18:51:29.634Z,22.60
2022-09-27T18:53:57.131Z,22.60
2022-09-27T18:56:24.006Z,22.60
2022-09-27T18:58:51.864Z,22.60
2022-09-27T19:01:19.172Z,22.60
2022-09-27T19:03:46.084Z,22.60
2022-09-27T19:06:19.904Z,22.60
2022-09-27T19:08:46.655Z,22.50
2022-09-27T19:11:16.914Z,22.60
2022-09-27T19:13:51.192Z,22.50
2022-09-27T19:16:18.619Z,22.60
2022-09-27T19:18:45.312Z,22.70
2022-09-27T19:21:12.860Z,22.90
2022-09-27T19:23:39.536Z,23.00
2022-09-27T19:26:07.075Z,23.20
2022-09-27T19:28:34.470Z,23.30
2022-09-27T19:31:04.434Z,23.30
2022-09-27T19:33:34.438Z,23.30
2022-09-27T19:36:01.662Z,23.30
2022-09-27T19:38:31.962Z,23.30
2022-09-27T19:40:58.801Z,23.20
2022-09-27T19:43:25.804Z,23.10
2022-09-27T19:45:52.489Z,23.10
2022-09-27T19:48:19.177Z,23.10
2022-09-27T19:50:55.950Z,23.00
2022-09-27T19:53:22.909Z,23.00
2022-09-27T19:55:56.631Z,23.00
2022-09-27T19:58:23.407Z,22.90
2022-09-27T20:00:56.945Z,22.90
2022-09-27T20:03:23.894Z,22.80
2022-09-27T20:05:54.344Z,22.80
2022-09-27T20:08:21.017Z,22.80
2022-09-27T20:11:00.371Z,22.80
2022-09-27T20:13:30.795Z,22.70
2022-09-27T20:16:16.520Z,22.70
2022-09-27T20:18:43.989Z,22.70
2022-09-27T20:21:10.651Z,22.70
2022-09-27T20:23:37.351Z,22.70
2022-09-27T20:26:07.741Z,22.70
2022-09-27T20:28:43.931Z,22.70
2022-09-27T20:31:11.104Z,22.60
2022-09-27T20:33:44.165Z,22.60
2022-09-27T20:36:12.627Z,22.60
2022-09-27T20:38:43.401Z,22.60
2022-09-27T20:41:10.618Z,22.60
2022-09-27T20:43:37.697Z,22.60
2022-09-27T20:46:05.028Z,22.60
2022-09-27T20:48:31.767Z,22.60
2022-09-27T20:51:01.268Z,22.60
2022-09-27T20:53:31.024Z,22.50
2022-09-27T20:55:59.346Z,22.50
2022-09-27T20:58:26.011Z,22.50
2022-09-27T21:00:52.990Z,22.50
2022-09-27T21:03:21.848Z,22.50
2022-09-27T21:05:58.289Z,22.50
2022-09-27T21:08:25.005Z,22.40
2022-09-27T21:10:52.978Z,22.50
2022-09-27T21:13:19.742Z,22.40
2022-09-27T21:15:46.488Z,22.40
2022-09-27T21:18:13.165Z,22.40
2022-09-27T21:20:39.878Z,22.40
2022-09-27T21:23:06.555Z,22.40
2022-09-27T21:25:33.259Z,22.50
2022-09-27T21:28:00.020Z,22.40
2022-09-27T21:30:27.734Z,22.40
2022-09-27T21:32:55.076Z,22.40
2022-09-27T21:35:22.079Z,22.50
2022-09-27T21:37:48.902Z,22.60
2022-09-27T21:40:16.075Z,22.80
2022-09-27T21:42:42.875Z,22.90
2022-09-27T21:45:09.834Z,23.10
2022-09-27T21:47:36.502Z,23.20
2022-09-27T21:50:03.287Z,23.30
2022-09-27T21:52:29.986Z,23.30
2022-09-27T21:54:56.688Z,23.20
2022-09-27T21:57:23.366Z,23.20
2022-09-27T21:59:50.024Z,23.10
2022-09-27T22:02:18.506Z,23.10
2022-09-27T22:04:45.184Z,23.00
2022-09-27T22:07:11.861Z,23.00
2022-09-27T22:09:38.936Z,23.00
2022-09-27T22:12:06.324Z,22.90
2022-09-27T22:14:34.047Z,22.90
2022-09-27T22:17:00.736Z,22.80
2022-09-27T22:19:27.450Z,22.80
2022-09-27T22:21:54.095Z,22.80
2022-09-27T22:24:20.811Z,22.70
2022-09-27T22:26:48.620Z,22.70
2022-09-27T22:29:15.532Z,22.70
2022-09-27T22:31:42.371Z,22.70
2022-09-27T22:34:16.194Z,22.60
2022-09-27T22:36:42.948Z,22.60
2022-09-27T22:39:09.609Z,22.60
2022-09-27T22:41:36.330Z,22.60
2022-09-27T22:44:03.005Z,22.60
2022-09-27T22:46:29.746Z,22.60
2022-09-27T22:48:56.502Z,22.50
2022-09-27T22:51:23.176Z,22.50
2022-09-27T22:53:49.982Z,22.50
2022-09-27T22:56:17.717Z,22.50
2022-09-27T22:58:44.503Z,22.50
2022-09-27T23:01:13.039Z,22.50
2022-09-27T23:03:39.872Z,22.50
2022-09-27T23:06:07.541Z,22.50
2022-09-27T23:08:37.594Z,22.40
2022-09-27T23:11:05.367Z,22.40
2022-09-27T23:13:32.997Z,22.40
2022-09-27T23:16:00.450Z,22.40
2022-09-27T23:18:27.136Z,22.40
2022-09-27T23:20:53.794Z,22.40
2022-09-27T23:23:20.459Z,22.40
2022-09-27T23:25:47.890Z,22.40
2022-09-27T23:28:14.569Z,22.40
2022-09-27T23:30:41.245Z,22.40
2022-09-27T23:33:08.444Z,22.40
2022-09-27T23:35:35.124Z,22.40
2022-09-27T23:38:01.799Z,22.40
2022-09-27T23:40:28.553Z,22.40
2022-09-27T23:42:55.361Z,22.30
2022-09-27T23:45:22.059Z,22.30
2022-09-27T23:47:48.725Z,22.30
2022-09-27T23:50:15.432Z,22.30
2022-09-27T23:52:43.119Z,22.30
2022-09-27T23:55:09.869Z,22.30
2022-09-27T23:57:36.534Z,22.40
